sensor_id;sensor_type;location;lat;lon;timestamp;P1;durP1;ratioP1;P2;durP2;ratioP2
59273;SDS011;45044;41.572;24.730;2024-03-17T00:00:11;18.58;;;11.63;;
59273;SDS011;45044;41.572;24.730;2024-03-17T00:02:40;18.05;;;11.60;;
59273;SDS011;45044;41.572;24.730;2024-03-17T00:05:07;19.23;;;12.00;;
59273;SDS011;45044;41.572;24.730;2024-03-17T00:07:32;21.83;;;13.15;;
59273;SDS011;45044;41.572;24.730;2024-03-17T00:09:58;26.77;;;16.83;;
59273;SDS011;45044;41.572;24.730;2024-03-17T00:12:24;23.80;;;15.07;;
59273;SDS011;45044;41.572;24.730;2024-03-17T00:14:50;20.95;;;14.05;;
59273;SDS011;45044;41.572;24.730;2024-03-17T00:17:15;23.48;;;14.93;;
59273;SDS011;45044;41.572;24.730;2024-03-17T00:19:41;24.80;;;13.80;;
59273;SDS011;45044;41.572;24.730;2024-03-17T00:22:07;25.58;;;15.43;;
59273;SDS011;45044;41.572;24.730;2024-03-17T00:24:34;20.02;;;14.02;;
59273;SDS011;45044;41.572;24.730;2024-03-17T00:27:01;20.58;;;12.85;;
59273;SDS011;45044;41.572;24.730;2024-03-17T00:29:27;20.17;;;13.55;;
59273;SDS011;45044;41.572;24.730;2024-03-17T00:31:53;19.13;;;11.75;;
59273;SDS011;45044;41.572;24.730;2024-03-17T00:34:19;18.20;;;10.88;;
59273;SDS011;45044;41.572;24.730;2024-03-17T00:36:45;22.02;;;12.68;;
59273;SDS011;45044;41.572;24.730;2024-03-17T00:39:11;27.90;;;14.80;;
59273;SDS011;45044;41.572;24.730;2024-03-17T00:41:38;22.65;;;12.55;;
59273;SDS011;45044;41.572;24.730;2024-03-17T00:44:04;21.15;;;13.25;;
59273;SDS011;45044;41.572;24.730;2024-03-17T00:46:29;21.00;;;12.00;;
59273;SDS011;45044;41.572;24.730;2024-03-17T00:48:55;21.10;;;11.33;;
59273;SDS011;45044;41.572;24.730;2024-03-17T00:51:21;17.27;;;10.07;;
59273;SDS011;45044;41.572;24.730;2024-03-17T00:53:47;20.50;;;11.52;;
59273;SDS011;45044;41.572;24.730;2024-03-17T00:56:13;113.97;;;40.97;;
59273;SDS011;45044;41.572;24.730;2024-03-17T00:58:38;62.70;;;25.30;;
59273;SDS011;45044;41.572;24.730;2024-03-17T01:01:04;39.55;;;19.35;;
59273;SDS011;45044;41.572;24.730;2024-03-17T01:03:30;48.30;;;23.93;;
59273;SDS011;45044;41.572;24.730;2024-03-17T01:05:55;36.78;;;20.02;;
59273;SDS011;45044;41.572;24.730;2024-03-17T01:08:21;41.53;;;21.42;;
59273;SDS011;45044;41.572;24.730;2024-03-17T01:10:47;31.55;;;19.17;;
59273;SDS011;45044;41.572;24.730;2024-03-17T01:13:16;88.33;;;34.03;;
59273;SDS011;45044;41.572;24.730;2024-03-17T01:15:43;30.10;;;15.53;;
59273;SDS011;45044;41.572;24.730;2024-03-17T01:18:09;26.10;;;14.98;;
59273;SDS011;45044;41.572;24.730;2024-03-17T01:20:35;31.20;;;14.93;;
59273;SDS011;45044;41.572;24.730;2024-03-17T01:23:05;19.05;;;10.23;;
59273;SDS011;45044;41.572;24.730;2024-03-17T01:25:32;15.70;;;8.60;;
59273;SDS011;45044;41.572;24.730;2024-03-17T01:28:01;50.83;;;22.70;;
59273;SDS011;45044;41.572;24.730;2024-03-17T01:30:27;46.97;;;20.10;;
59273;SDS011;45044;41.572;24.730;2024-03-17T01:32:57;65.70;;;25.17;;
59273;SDS011;45044;41.572;24.730;2024-03-17T01:35:25;52.42;;;23.20;;
59273;SDS011;45044;41.572;24.730;2024-03-17T01:37:51;37.33;;;20.85;;
59273;SDS011;45044;41.572;24.730;2024-03-17T01:40:18;37.42;;;17.52;;
59273;SDS011;45044;41.572;24.730;2024-03-17T01:42:44;42.23;;;19.50;;
59273;SDS011;45044;41.572;24.730;2024-03-17T01:47:50;37.87;;;17.93;;
59273;SDS011;45044;41.572;24.730;2024-03-17T01:50:16;44.08;;;21.70;;
59273;SDS011;45044;41.572;24.730;2024-03-17T01:52:46;42.73;;;20.47;;
59273;SDS011;45044;41.572;24.730;2024-03-17T01:55:13;25.33;;;13.60;;
59273;SDS011;45044;41.572;24.730;2024-03-17T01:57:39;35.37;;;17.43;;
59273;SDS011;45044;41.572;24.730;2024-03-17T02:00:05;31.67;;;16.77;;
59273;SDS011;45044;41.572;24.730;2024-03-17T02:02:34;24.97;;;13.50;;
59273;SDS011;45044;41.572;24.730;2024-03-17T02:05:00;19.15;;;10.90;;
59273;SDS011;45044;41.572;24.730;2024-03-17T02:07:26;17.40;;;11.17;;
59273;SDS011;45044;41.572;24.730;2024-03-17T02:09:51;23.50;;;11.27;;
59273;SDS011;45044;41.572;24.730;2024-03-17T02:12:17;129.57;;;45.30;;
59273;SDS011;45044;41.572;24.730;2024-03-17T02:14:43;40.40;;;19.57;;
59273;SDS011;45044;41.572;24.730;2024-03-17T02:17:09;70.23;;;33.60;;
59273;SDS011;45044;41.572;24.730;2024-03-17T02:19:35;63.93;;;30.27;;
59273;SDS011;45044;41.572;24.730;2024-03-17T02:22:00;31.90;;;18.48;;
59273;SDS011;45044;41.572;24.730;2024-03-17T02:24:26;37.03;;;18.50;;
59273;SDS011;45044;41.572;24.730;2024-03-17T02:26:52;50.60;;;27.47;;
59273;SDS011;45044;41.572;24.730;2024-03-17T02:29:18;54.67;;;28.30;;
59273;SDS011;45044;41.572;24.730;2024-03-17T02:31:43;47.57;;;24.40;;
59273;SDS011;45044;41.572;24.730;2024-03-17T02:34:09;22.57;;;14.13;;
59273;SDS011;45044;41.572;24.730;2024-03-17T02:36:35;17.73;;;10.30;;
59273;SDS011;45044;41.572;24.730;2024-03-17T02:39:00;20.70;;;12.93;;
59273;SDS011;45044;41.572;24.730;2024-03-17T02:41:45;19.63;;;12.55;;
59273;SDS011;45044;41.572;24.730;2024-03-17T02:44:11;19.80;;;12.37;;
59273;SDS011;45044;41.572;24.730;2024-03-17T02:46:37;18.93;;;12.10;;
59273;SDS011;45044;41.572;24.730;2024-03-17T02:49:03;21.33;;;13.13;;
59273;SDS011;45044;41.572;24.730;2024-03-17T02:51:29;28.53;;;15.97;;
59273;SDS011;45044;41.572;24.730;2024-03-17T02:53:55;26.07;;;15.30;;
59273;SDS011;45044;41.572;24.730;2024-03-17T02:56:20;26.17;;;16.77;;
59273;SDS011;45044;41.572;24.730;2024-03-17T02:58:47;29.17;;;15.97;;
59273;SDS011;45044;41.572;24.730;2024-03-17T03:01:14;28.20;;;16.67;;
59273;SDS011;45044;41.572;24.730;2024-03-17T03:03:40;25.70;;;15.93;;
59273;SDS011;45044;41.572;24.730;2024-03-17T03:06:06;20.38;;;11.93;;
59273;SDS011;45044;41.572;24.730;2024-03-17T03:08:35;21.03;;;13.10;;
59273;SDS011;45044;41.572;24.730;2024-03-17T03:11:04;28.58;;;16.33;;
59273;SDS011;45044;41.572;24.730;2024-03-17T03:13:32;25.42;;;16.33;;
59273;SDS011;45044;41.572;24.730;2024-03-17T03:15:58;29.27;;;17.20;;
59273;SDS011;45044;41.572;24.730;2024-03-17T03:18:23;26.73;;;15.40;;
59273;SDS011;45044;41.572;24.730;2024-03-17T03:20:52;25.57;;;15.13;;
59273;SDS011;45044;41.572;24.730;2024-03-17T03:23:18;22.97;;;14.33;;
59273;SDS011;45044;41.572;24.730;2024-03-17T03:25:44;24.08;;;14.05;;
59273;SDS011;45044;41.572;24.730;2024-03-17T03:28:13;26.27;;;15.97;;
59273;SDS011;45044;41.572;24.730;2024-03-17T03:30:39;26.03;;;15.57;;
59273;SDS011;45044;41.572;24.730;2024-03-17T03:33:05;21.53;;;13.27;;
59273;SDS011;45044;41.572;24.730;2024-03-17T03:35:31;22.03;;;12.80;;
59273;SDS011;45044;41.572;24.730;2024-03-17T03:37:57;26.93;;;12.97;;
59273;SDS011;45044;41.572;24.730;2024-03-17T03:40:23;31.53;;;16.87;;
59273;SDS011;45044;41.572;24.730;2024-03-17T03:42:52;27.33;;;14.63;;
59273;SDS011;45044;41.572;24.730;2024-03-17T03:45:18;27.70;;;15.27;;
59273;SDS011;45044;41.572;24.730;2024-03-17T03:47:45;18.93;;;11.97;;
59273;SDS011;45044;41.572;24.730;2024-03-17T03:50:11;25.00;;;15.23;;
59273;SDS011;45044;41.572;24.730;2024-03-17T03:52:41;26.93;;;15.87;;
59273;SDS011;45044;41.572;24.730;2024-03-17T03:55:07;27.20;;;15.20;;
59273;SDS011;45044;41.572;24.730;2024-03-17T03:57:43;24.47;;;15.50;;
59273;SDS011;45044;41.572;24.730;2024-03-17T04:00:16;25.50;;;14.97;;
59273;SDS011;45044;41.572;24.730;2024-03-17T04:02:48;25.43;;;14.47;;
59273;SDS011;45044;41.572;24.730;2024-03-17T04:05:18;17.93;;;11.47;;
59273;SDS011;45044;41.572;24.730;2024-03-17T04:07:45;16.90;;;11.30;;
59273;SDS011;45044;41.572;24.730;2024-03-17T04:10:13;15.53;;;11.07;;
59273;SDS011;45044;41.572;24.730;2024-03-17T04:12:39;18.27;;;12.60;;
59273;SDS011;45044;41.572;24.730;2024-03-17T04:15:06;18.60;;;12.33;;
59273;SDS011;45044;41.572;24.730;2024-03-17T04:17:32;18.43;;;11.80;;
59273;SDS011;45044;41.572;24.730;2024-03-17T04:19:59;22.50;;;13.43;;
59273;SDS011;45044;41.572;24.730;2024-03-17T04:22:26;21.13;;;13.35;;
59273;SDS011;45044;41.572;24.730;2024-03-17T04:24:52;20.80;;;13.67;;
59273;SDS011;45044;41.572;24.730;2024-03-17T04:27:23;19.73;;;14.00;;
59273;SDS011;45044;41.572;24.730;2024-03-17T04:29:49;87.20;;;33.40;;
59273;SDS011;45044;41.572;24.730;2024-03-17T04:32:17;42.80;;;20.60;;
59273;SDS011;45044;41.572;24.730;2024-03-17T04:34:42;34.77;;;19.30;;
59273;SDS011;45044;41.572;24.730;2024-03-17T04:37:12;43.90;;;20.40;;
59273;SDS011;45044;41.572;24.730;2024-03-17T04:39:39;39.63;;;20.53;;
59273;SDS011;45044;41.572;24.730;2024-03-17T04:42:08;40.20;;;20.27;;
59273;SDS011;45044;41.572;24.730;2024-03-17T04:44:34;35.03;;;18.10;;
59273;SDS011;45044;41.572;24.730;2024-03-17T04:47:00;32.73;;;19.40;;
59273;SDS011;45044;41.572;24.730;2024-03-17T04:49:27;34.23;;;19.90;;
59273;SDS011;45044;41.572;24.730;2024-03-17T04:51:53;27.53;;;16.73;;
59273;SDS011;45044;41.572;24.730;2024-03-17T04:54:19;29.20;;;17.03;;
59273;SDS011;45044;41.572;24.730;2024-03-17T04:56:44;31.87;;;18.33;;
59273;SDS011;45044;41.572;24.730;2024-03-17T04:59:11;30.53;;;18.97;;
59273;SDS011;45044;41.572;24.730;2024-03-17T05:01:36;24.87;;;17.63;;
59273;SDS011;45044;41.572;24.730;2024-03-17T05:04:02;27.33;;;17.80;;
59273;SDS011;45044;41.572;24.730;2024-03-17T05:06:29;32.57;;;18.70;;
59273;SDS011;45044;41.572;24.730;2024-03-17T05:08:55;37.77;;;22.73;;
59273;SDS011;45044;41.572;24.730;2024-03-17T05:11:20;31.13;;;18.80;;
59273;SDS011;45044;41.572;24.730;2024-03-17T05:13:46;26.55;;;17.38;;
59273;SDS011;45044;41.572;24.730;2024-03-17T05:16:12;29.57;;;20.07;;
59273;SDS011;45044;41.572;24.730;2024-03-17T05:18:38;30.03;;;20.13;;
59273;SDS011;45044;41.572;24.730;2024-03-17T05:21:05;36.87;;;22.57;;
59273;SDS011;45044;41.572;24.730;2024-03-17T05:23:32;32.77;;;21.00;;
59273;SDS011;45044;41.572;24.730;2024-03-17T05:25:59;35.47;;;21.73;;
59273;SDS011;45044;41.572;24.730;2024-03-17T05:28:27;33.97;;;22.50;;
59273;SDS011;45044;41.572;24.730;2024-03-17T05:30:54;34.37;;;23.67;;
59273;SDS011;45044;41.572;24.730;2024-03-17T05:33:20;44.22;;;28.27;;
59273;SDS011;45044;41.572;24.730;2024-03-17T05:35:50;45.40;;;30.38;;
59273;SDS011;45044;41.572;24.730;2024-03-17T05:38:26;48.35;;;31.52;;
59273;SDS011;45044;41.572;24.730;2024-03-17T05:40:56;45.45;;;30.00;;
59273;SDS011;45044;41.572;24.730;2024-03-17T05:43:23;44.90;;;30.05;;
59273;SDS011;45044;41.572;24.730;2024-03-17T05:45:59;42.67;;;27.17;;
59273;SDS011;45044;41.572;24.730;2024-03-17T05:48:29;43.38;;;28.65;;
59273;SDS011;45044;41.572;24.730;2024-03-17T05:50:56;44.92;;;28.48;;
59273;SDS011;45044;41.572;24.730;2024-03-17T05:53:22;53.78;;;35.03;;
59273;SDS011;45044;41.572;24.730;2024-03-17T05:55:51;57.25;;;37.92;;
59273;SDS011;45044;41.572;24.730;2024-03-17T05:58:17;54.72;;;38.83;;
59273;SDS011;45044;41.572;24.730;2024-03-17T06:00:43;78.38;;;43.75;;
59273;SDS011;45044;41.572;24.730;2024-03-17T06:03:09;42.22;;;27.88;;
59273;SDS011;45044;41.572;24.730;2024-03-17T06:05:35;41.90;;;28.38;;
59273;SDS011;45044;41.572;24.730;2024-03-17T06:08:03;50.35;;;32.60;;
59273;SDS011;45044;41.572;24.730;2024-03-17T06:10:31;52.88;;;34.58;;
59273;SDS011;45044;41.572;24.730;2024-03-17T06:12:57;62.90;;;38.92;;
59273;SDS011;45044;41.572;24.730;2024-03-17T06:15:24;59.10;;;39.67;;
59273;SDS011;45044;41.572;24.730;2024-03-17T06:17:51;56.08;;;39.75;;
59273;SDS011;45044;41.572;24.730;2024-03-17T06:20:20;65.55;;;43.40;;
59273;SDS011;45044;41.572;24.730;2024-03-17T06:22:46;55.05;;;39.45;;
59273;SDS011;45044;41.572;24.730;2024-03-17T06:25:12;53.25;;;36.95;;
59273;SDS011;45044;41.572;24.730;2024-03-17T06:27:38;49.08;;;34.65;;
59273;SDS011;45044;41.572;24.730;2024-03-17T06:30:04;50.88;;;36.60;;
59273;SDS011;45044;41.572;24.730;2024-03-17T06:32:32;48.33;;;34.35;;
59273;SDS011;45044;41.572;24.730;2024-03-17T06:34:58;45.70;;;32.55;;
59273;SDS011;45044;41.572;24.730;2024-03-17T06:37:26;48.30;;;32.78;;
59273;SDS011;45044;41.572;24.730;2024-03-17T06:39:52;40.35;;;28.08;;
59273;SDS011;45044;41.572;24.730;2024-03-17T06:42:18;41.67;;;28.50;;
59273;SDS011;45044;41.572;24.730;2024-03-17T06:44:44;48.38;;;32.83;;
59273;SDS011;45044;41.572;24.730;2024-03-17T06:47:10;46.97;;;32.72;;
59273;SDS011;45044;41.572;24.730;2024-03-17T06:49:36;49.40;;;35.85;;
59273;SDS011;45044;41.572;24.730;2024-03-17T06:52:02;40.72;;;31.77;;
59273;SDS011;45044;41.572;24.730;2024-03-17T06:54:28;38.67;;;27.42;;
59273;SDS011;45044;41.572;24.730;2024-03-17T06:56:53;34.20;;;25.65;;
59273;SDS011;45044;41.572;24.730;2024-03-17T06:59:19;27.38;;;22.02;;
59273;SDS011;45044;41.572;24.730;2024-03-17T07:01:59;22.95;;;16.70;;
59273;SDS011;45044;41.572;24.730;2024-03-17T07:04:24;13.57;;;10.35;;
59273;SDS011;45044;41.572;24.730;2024-03-17T07:06:50;15.38;;;11.50;;
59273;SDS011;45044;41.572;24.730;2024-03-17T07:09:16;24.33;;;16.02;;
59273;SDS011;45044;41.572;24.730;2024-03-17T07:11:42;19.00;;;14.40;;
59273;SDS011;45044;41.572;24.730;2024-03-17T07:14:09;20.63;;;15.95;;
59273;SDS011;45044;41.572;24.730;2024-03-17T07:16:35;24.08;;;17.08;;
59273;SDS011;45044;41.572;24.730;2024-03-17T07:19:01;19.42;;;15.55;;
59273;SDS011;45044;41.572;24.730;2024-03-17T07:21:27;16.33;;;12.25;;
59273;SDS011;45044;41.572;24.730;2024-03-17T07:23:53;17.30;;;12.90;;
59273;SDS011;45044;41.572;24.730;2024-03-17T07:26:20;12.57;;;9.52;;
59273;SDS011;45044;41.572;24.730;2024-03-17T07:28:45;20.90;;;14.88;;
59273;SDS011;45044;41.572;24.730;2024-03-17T07:31:11;16.95;;;12.00;;
59273;SDS011;45044;41.572;24.730;2024-03-17T07:33:37;27.45;;;17.90;;
59273;SDS011;45044;41.572;24.730;2024-03-17T07:36:03;26.70;;;17.70;;
59273;SDS011;45044;41.572;24.730;2024-03-17T07:38:30;16.15;;;12.20;;
59273;SDS011;45044;41.572;24.730;2024-03-17T07:41:00;15.45;;;10.75;;
59273;SDS011;45044;41.572;24.730;2024-03-17T07:43:37;22.27;;;14.32;;
59273;SDS011;45044;41.572;24.730;2024-03-17T07:46:05;21.92;;;15.50;;
59273;SDS011;45044;41.572;24.730;2024-03-17T07:48:31;21.35;;;14.30;;
59273;SDS011;45044;41.572;24.730;2024-03-17T07:50:59;19.52;;;15.07;;
59273;SDS011;45044;41.572;24.730;2024-03-17T07:53:32;17.38;;;13.65;;
59273;SDS011;45044;41.572;24.730;2024-03-17T07:58:35;17.17;;;12.68;;
59273;SDS011;45044;41.572;24.730;2024-03-17T08:01:08;18.77;;;14.82;;
59273;SDS011;45044;41.572;24.730;2024-03-17T08:03:45;18.40;;;13.65;;
59273;SDS011;45044;41.572;24.730;2024-03-17T08:06:14;18.00;;;11.50;;
59273;SDS011;45044;41.572;24.730;2024-03-17T08:08:40;15.90;;;11.73;;
59273;SDS011;45044;41.572;24.730;2024-03-17T08:11:06;14.68;;;10.60;;
59273;SDS011;45044;41.572;24.730;2024-03-17T08:13:32;17.75;;;11.95;;
59273;SDS011;45044;41.572;24.730;2024-03-17T08:16:03;14.85;;;9.52;;
59273;SDS011;45044;41.572;24.730;2024-03-17T08:18:31;17.67;;;11.18;;
59273;SDS011;45044;41.572;24.730;2024-03-17T08:20:57;13.85;;;10.20;;
59273;SDS011;45044;41.572;24.730;2024-03-17T08:23:25;15.13;;;11.27;;
59273;SDS011;45044;41.572;24.730;2024-03-17T08:25:52;17.25;;;11.73;;
59273;SDS011;45044;41.572;24.730;2024-03-17T08:28:21;15.63;;;11.30;;
59273;SDS011;45044;41.572;24.730;2024-03-17T08:30:54;15.68;;;11.52;;
59273;SDS011;45044;41.572;24.730;2024-03-17T08:33:21;14.30;;;11.05;;
59273;SDS011;45044;41.572;24.730;2024-03-17T08:38:20;17.48;;;12.07;;
59273;SDS011;45044;41.572;24.730;2024-03-17T08:40:49;17.67;;;10.60;;
59273;SDS011;45044;41.572;24.730;2024-03-17T08:43:18;13.00;;;9.10;;
59273;SDS011;45044;41.572;24.730;2024-03-17T08:45:45;12.60;;;8.75;;
59273;SDS011;45044;41.572;24.730;2024-03-17T08:48:19;30.35;;;19.65;;
59273;SDS011;45044;41.572;24.730;2024-03-17T08:50:51;20.30;;;15.25;;
59273;SDS011;45044;41.572;24.730;2024-03-17T08:53:19;20.88;;;15.20;;
59273;SDS011;45044;41.572;24.730;2024-03-17T08:55:45;22.70;;;15.50;;
59273;SDS011;45044;41.572;24.730;2024-03-17T08:58:10;43.97;;;26.38;;
59273;SDS011;45044;41.572;24.730;2024-03-17T09:00:36;14.45;;;10.00;;
59273;SDS011;45044;41.572;24.730;2024-03-17T09:03:02;17.23;;;11.98;;
59273;SDS011;45044;41.572;24.730;2024-03-17T09:05:29;14.52;;;10.18;;
59273;SDS011;45044;41.572;24.730;2024-03-17T09:07:54;10.07;;;6.47;;
59273;SDS011;45044;41.572;24.730;2024-03-17T09:10:21;11.30;;;6.88;;
59273;SDS011;45044;41.572;24.730;2024-03-17T09:12:46;11.80;;;7.70;;
59273;SDS011;45044;41.572;24.730;2024-03-17T09:15:13;15.75;;;9.23;;
59273;SDS011;45044;41.572;24.730;2024-03-17T09:17:40;18.08;;;10.60;;
59273;SDS011;45044;41.572;24.730;2024-03-17T09:20:06;14.18;;;8.38;;
59273;SDS011;45044;41.572;24.730;2024-03-17T09:22:39;10.77;;;7.07;;
59273;SDS011;45044;41.572;24.730;2024-03-17T09:25:08;14.30;;;8.85;;
59273;SDS011;45044;41.572;24.730;2024-03-17T09:27:34;12.77;;;8.90;;
59273;SDS011;45044;41.572;24.730;2024-03-17T09:30:06;11.02;;;7.47;;
59273;SDS011;45044;41.572;24.730;2024-03-17T09:32:38;10.05;;;6.53;;
59273;SDS011;45044;41.572;24.730;2024-03-17T09:35:04;10.25;;;6.45;;
59273;SDS011;45044;41.572;24.730;2024-03-17T09:37:30;11.55;;;7.55;;
59273;SDS011;45044;41.572;24.730;2024-03-17T09:39:57;12.95;;;7.68;;
59273;SDS011;45044;41.572;24.730;2024-03-17T09:42:25;12.13;;;7.07;;
59273;SDS011;45044;41.572;24.730;2024-03-17T09:44:53;9.82;;;6.50;;
59273;SDS011;45044;41.572;24.730;2024-03-17T09:47:22;10.52;;;5.20;;
59273;SDS011;45044;41.572;24.730;2024-03-17T09:49:49;21.50;;;11.38;;
59273;SDS011;45044;41.572;24.730;2024-03-17T09:52:23;11.98;;;7.68;;
59273;SDS011;45044;41.572;24.730;2024-03-17T09:54:54;8.53;;;5.90;;
59273;SDS011;45044;41.572;24.730;2024-03-17T09:57:25;10.75;;;6.38;;
59273;SDS011;45044;41.572;24.730;2024-03-17T09:59:54;10.77;;;6.18;;
59273;SDS011;45044;41.572;24.730;2024-03-17T10:02:20;10.00;;;6.30;;
59273;SDS011;45044;41.572;24.730;2024-03-17T10:04:46;8.38;;;5.15;;
59273;SDS011;45044;41.572;24.730;2024-03-17T10:07:13;16.42;;;10.18;;
59273;SDS011;45044;41.572;24.730;2024-03-17T10:09:40;17.05;;;10.85;;
59273;SDS011;45044;41.572;24.730;2024-03-17T10:12:28;18.00;;;12.50;;
59273;SDS011;45044;41.572;24.730;2024-03-17T10:15:00;10.60;;;7.57;;
59273;SDS011;45044;41.572;24.730;2024-03-17T10:17:32;10.63;;;5.75;;
59273;SDS011;45044;41.572;24.730;2024-03-17T10:20:16;11.15;;;6.82;;
59273;SDS011;45044;41.572;24.730;2024-03-17T10:22:59;12.23;;;8.27;;
59273;SDS011;45044;41.572;24.730;2024-03-17T10:25:26;14.93;;;9.07;;
59273;SDS011;45044;41.572;24.730;2024-03-17T10:27:53;11.05;;;7.07;;
59273;SDS011;45044;41.572;24.730;2024-03-17T10:30:20;11.02;;;7.43;;
59273;SDS011;45044;41.572;24.730;2024-03-17T10:32:57;6.43;;;3.75;;
59273;SDS011;45044;41.572;24.730;2024-03-17T10:35:28;12.32;;;9.05;;
59273;SDS011;45044;41.572;24.730;2024-03-17T10:38:02;8.50;;;5.30;;
59273;SDS011;45044;41.572;24.730;2024-03-17T10:40:32;7.50;;;4.95;;
59273;SDS011;45044;41.572;24.730;2024-03-17T10:43:02;7.65;;;5.13;;
59273;SDS011;45044;41.572;24.730;2024-03-17T10:45:28;8.52;;;5.15;;
59273;SDS011;45044;41.572;24.730;2024-03-17T10:47:59;9.50;;;5.95;;
59273;SDS011;45044;41.572;24.730;2024-03-17T10:50:26;10.52;;;6.15;;
59273;SDS011;45044;41.572;24.730;2024-03-17T10:52:57;11.20;;;7.93;;
59273;SDS011;45044;41.572;24.730;2024-03-17T10:55:28;8.00;;;4.80;;
59273;SDS011;45044;41.572;24.730;2024-03-17T10:57:57;10.13;;;6.07;;
59273;SDS011;45044;41.572;24.730;2024-03-17T11:00:29;8.25;;;5.40;;
59273;SDS011;45044;41.572;24.730;2024-03-17T11:02:57;8.68;;;5.72;;
59273;SDS011;45044;41.572;24.730;2024-03-17T11:05:24;6.03;;;4.18;;
59273;SDS011;45044;41.572;24.730;2024-03-17T11:07:56;7.63;;;4.15;;
59273;SDS011;45044;41.572;24.730;2024-03-17T11:10:31;8.80;;;5.05;;
59273;SDS011;45044;41.572;24.730;2024-03-17T11:12:59;6.50;;;3.97;;
59273;SDS011;45044;41.572;24.730;2024-03-17T11:20:33;11.25;;;6.68;;
59273;SDS011;45044;41.572;24.730;2024-03-17T11:23:00;9.95;;;5.68;;
59273;SDS011;45044;41.572;24.730;2024-03-17T11:33:50;10.13;;;5.68;;
59273;SDS011;45044;41.572;24.730;2024-03-17T11:39:08;10.75;;;6.53;;
59273;SDS011;45044;41.572;24.730;2024-03-17T11:41:49;12.18;;;7.13;;
59273;SDS011;45044;41.572;24.730;2024-03-17T11:46:54;10.73;;;6.80;;
59273;SDS011;45044;41.572;24.730;2024-03-17T11:49:24;10.93;;;7.28;;
59273;SDS011;45044;41.572;24.730;2024-03-17T11:51:54;12.13;;;7.90;;
59273;SDS011;45044;41.572;24.730;2024-03-17T11:54:25;12.93;;;7.32;;
59273;SDS011;45044;41.572;24.730;2024-03-17T11:56:59;10.05;;;6.25;;
59273;SDS011;45044;41.572;24.730;2024-03-17T11:59:26;12.93;;;7.70;;
59273;SDS011;45044;41.572;24.730;2024-03-17T12:01:52;15.07;;;8.18;;
59273;SDS011;45044;41.572;24.730;2024-03-17T12:04:19;11.88;;;7.20;;
59273;SDS011;45044;41.572;24.730;2024-03-17T12:06:47;9.20;;;6.07;;
59273;SDS011;45044;41.572;24.730;2024-03-17T12:09:22;10.77;;;5.78;;
59273;SDS011;45044;41.572;24.730;2024-03-17T12:14:25;7.97;;;4.90;;
59273;SDS011;45044;41.572;24.730;2024-03-17T12:16:59;7.47;;;4.63;;
59273;SDS011;45044;41.572;24.730;2024-03-17T12:19:29;8.68;;;5.60;;
59273;SDS011;45044;41.572;24.730;2024-03-17T12:21:55;9.88;;;6.78;;
59273;SDS011;45044;41.572;24.730;2024-03-17T12:24:26;9.65;;;6.68;;
59273;SDS011;45044;41.572;24.730;2024-03-17T12:26:53;7.43;;;4.90;;
59273;SDS011;45044;41.572;24.730;2024-03-17T12:32:02;9.77;;;5.95;;
59273;SDS011;45044;41.572;24.730;2024-03-17T12:34:33;6.40;;;3.85;;
59273;SDS011;45044;41.572;24.730;2024-03-17T12:37:02;5.80;;;3.90;;
59273;SDS011;45044;41.572;24.730;2024-03-17T12:39:30;7.20;;;4.45;;
59273;SDS011;45044;41.572;24.730;2024-03-17T12:42:00;7.75;;;5.10;;
59273;SDS011;45044;41.572;24.730;2024-03-17T12:44:38;6.63;;;4.07;;
59273;SDS011;45044;41.572;24.730;2024-03-17T12:47:16;7.43;;;4.22;;
59273;SDS011;45044;41.572;24.730;2024-03-17T12:49:50;15.43;;;9.10;;
59273;SDS011;45044;41.572;24.730;2024-03-17T12:55:02;7.70;;;4.85;;
59273;SDS011;45044;41.572;24.730;2024-03-17T12:57:51;6.78;;;4.45;;
59273;SDS011;45044;41.572;24.730;2024-03-17T13:00:37;9.05;;;4.63;;
59273;SDS011;45044;41.572;24.730;2024-03-17T13:03:04;6.55;;;3.92;;
59273;SDS011;45044;41.572;24.730;2024-03-17T13:05:31;6.97;;;4.28;;
59273;SDS011;45044;41.572;24.730;2024-03-17T13:07:57;8.80;;;4.50;;
59273;SDS011;45044;41.572;24.730;2024-03-17T13:10:27;9.15;;;5.60;;
59273;SDS011;45044;41.572;24.730;2024-03-17T13:13:03;7.57;;;4.00;;
59273;SDS011;45044;41.572;24.730;2024-03-17T13:15:31;9.90;;;6.07;;
59273;SDS011;45044;41.572;24.730;2024-03-17T13:17:57;19.15;;;14.95;;
59273;SDS011;45044;41.572;24.730;2024-03-17T13:20:27;10.35;;;7.00;;
59273;SDS011;45044;41.572;24.730;2024-03-17T13:22:53;11.50;;;7.68;;
59273;SDS011;45044;41.572;24.730;2024-03-17T13:25:19;10.02;;;6.32;;
59273;SDS011;45044;41.572;24.730;2024-03-17T13:27:48;9.15;;;5.20;;
59273;SDS011;45044;41.572;24.730;2024-03-17T13:30:15;9.00;;;6.78;;
59273;SDS011;45044;41.572;24.730;2024-03-17T13:32:42;7.90;;;5.40;;
59273;SDS011;45044;41.572;24.730;2024-03-17T13:35:15;9.45;;;6.35;;
59273;SDS011;45044;41.572;24.730;2024-03-17T13:37:43;9.13;;;5.50;;
59273;SDS011;45044;41.572;24.730;2024-03-17T13:40:13;8.43;;;5.25;;
59273;SDS011;45044;41.572;24.730;2024-03-17T13:42:42;8.35;;;5.47;;
59273;SDS011;45044;41.572;24.730;2024-03-17T13:45:10;11.50;;;6.93;;
59273;SDS011;45044;41.572;24.730;2024-03-17T13:47:37;11.32;;;6.90;;
59273;SDS011;45044;41.572;24.730;2024-03-17T13:50:04;10.23;;;5.97;;
59273;SDS011;45044;41.572;24.730;2024-03-17T13:52:35;5.68;;;3.17;;
59273;SDS011;45044;41.572;24.730;2024-03-17T13:55:02;10.23;;;5.72;;
59273;SDS011;45044;41.572;24.730;2024-03-17T13:57:32;18.02;;;10.45;;
59273;SDS011;45044;41.572;24.730;2024-03-17T13:59:59;12.70;;;7.25;;
59273;SDS011;45044;41.572;24.730;2024-03-17T14:02:24;21.67;;;11.65;;
59273;SDS011;45044;41.572;24.730;2024-03-17T14:04:50;11.95;;;6.28;;
59273;SDS011;45044;41.572;24.730;2024-03-17T14:07:16;22.52;;;12.40;;
59273;SDS011;45044;41.572;24.730;2024-03-17T14:09:41;21.27;;;12.52;;
59273;SDS011;45044;41.572;24.730;2024-03-17T14:12:08;17.30;;;9.82;;
59273;SDS011;45044;41.572;24.730;2024-03-17T14:14:34;16.52;;;9.57;;
59273;SDS011;45044;41.572;24.730;2024-03-17T14:16:59;13.00;;;9.00;;
59273;SDS011;45044;41.572;24.730;2024-03-17T14:19:25;14.43;;;8.43;;
59273;SDS011;45044;41.572;24.730;2024-03-17T14:21:52;36.30;;;18.00;;
59273;SDS011;45044;41.572;24.730;2024-03-17T14:24:18;18.95;;;11.45;;
59273;SDS011;45044;41.572;24.730;2024-03-17T14:26:43;22.25;;;13.10;;
59273;SDS011;45044;41.572;24.730;2024-03-17T14:29:09;12.55;;;9.55;;
59273;SDS011;45044;41.572;24.730;2024-03-17T14:31:35;11.93;;;9.73;;
59273;SDS011;45044;41.572;24.730;2024-03-17T14:34:03;13.23;;;10.70;;
59273;SDS011;45044;41.572;24.730;2024-03-17T14:36:32;13.73;;;10.75;;
59273;SDS011;45044;41.572;24.730;2024-03-17T14:38:59;13.70;;;9.15;;
59273;SDS011;45044;41.572;24.730;2024-03-17T14:41:31;12.98;;;8.60;;
59273;SDS011;45044;41.572;24.730;2024-03-17T14:43:57;9.60;;;6.50;;
59273;SDS011;45044;41.572;24.730;2024-03-17T14:46:23;10.45;;;6.82;;
59273;SDS011;45044;41.572;24.730;2024-03-17T14:48:49;45.28;;;30.63;;
59273;SDS011;45044;41.572;24.730;2024-03-17T14:51:19;16.60;;;10.80;;